Time;durP1;ratioP1;P1;durP2;ratioP2;P2;SDS_P1;SDS_P2;PMS_P1;PMS_P2;Temp;Humidity;BMP_temperature;BMP_pressure;BME280_temperature;BME280_humidity;BME280_pressure;Samples;Min_cycle;Max_cycle;Signal;HPM_P1;HPM_P2
2022/08/26 00:01:50;;;;;;;14.30;12.80;;;20.70;99.90;;;;;;5050116;28;20053;-80
2022/08/26 00:04:15;;;;;;;16.77;14.95;;;20.70;99.90;;;;;;5050874;28;20037;-80
2022/08/26 00:06:41;;;;;;;20.50;15.35;;;20.70;99.90;;;;;;5049922;28;20118;-80
2022/08/26 00:09:07;;;;;;;18.15;14.73;;;20.60;99.90;;;;;;5048607;28;20060;-80
2022/08/26 00:11:32;;;;;;;18.30;16.33;;;20.60;99.90;;;;;;5049691;28;20096;-80
2022/08/26 00:13:58;;;;;;;23.35;19.65;;;20.60;99.90;;;;;;5047597;28;20121;-80
2022/08/26 00:16:26;;;;;;;21.52;18.77;;;20.50;99.90;;;;;;5051734;28;20044;-80
2022/08/26 00:18:52;;;;;;;24.98;20.98;;;20.40;99.90;;;;;;5049352;28;20523;-80
2022/08/26 00:21:19;;;;;;;23.00;19.75;;;20.30;99.90;;;;;;5034524;28;20051;-80
2022/08/26 00:23:45;;;;;;;25.35;21.60;;;20.30;99.90;;;;;;5052571;28;20049;-80
2022/08/26 00:26:12;;;;;;;25.05;22.52;;;20.20;99.90;;;;;;5050135;28;20091;-80
2022/08/26 00:28:38;;;;;;;26.65;23.83;;;20.20;99.90;;;;;;5044559;28;20037;-80
2022/08/26 00:31:03;;;;;;;26.90;22.55;;;20.10;99.90;;;;;;5048192;28;20091;-80
2022/08/26 00:33:29;;;;;;;26.98;23.33;;;20.10;99.90;;;;;;5052598;28;20049;-81
2022/08/26 00:35:55;;;;;;;27.20;23.27;;;20.10;99.90;;;;;;5054423;28;21104;-80
2022/08/26 00:38:21;;;;;;;30.75;25.80;;;20.10;99.90;;;;;;5054123;28;20130;-81
2022/08/26 00:40:55;;;;;;;32.20;28.80;;;20.10;99.90;;;;;;5040204;28;20052;-80
2022/08/26 00:43:22;;;;;;;35.60;31.80;;;20.00;99.90;;;;;;5055000;28;20040;-80
2022/08/26 00:45:59;;;;;;;42.90;33.03;;;20.00;99.90;;;;;;5036361;28;20362;-80
2022/08/26 00:48:28;;;;;;;34.15;30.35;;;20.00;99.90;;;;;;5054055;28;20051;-80
2022/08/26 00:50:59;;;;;;;38.28;32.42;;;20.00;99.90;;;;;;5055016;28;20044;-80
2022/08/26 00:53:29;;;;;;;40.15;33.70;;;20.00;99.90;;;;;;5050066;28;20126;-81
2022/08/26 00:55:58;;;;;;;41.25;36.80;;;20.00;99.90;;;;;;5055667;28;20086;-80
2022/08/26 00:58:25;;;;;;;42.03;35.03;;;19.90;99.90;;;;;;5040185;28;20049;-81
2022/08/26 01:00:52;;;;;;;40.40;35.47;;;19.90;99.90;;;;;;5041272;28;20041;-81
2022/08/26 01:03:22;;;;;;;45.17;40.25;;;19.90;99.90;;;;;;5057955;28;20037;-81
2022/08/26 01:05:48;;;;;;;47.38;39.83;;;19.90;99.90;;;;;;5052976;28;20045;-81
2022/08/26 01:08:14;;;;;;;44.80;39.95;;;19.90;99.90;;;;;;5059000;28;20029;-81
2022/08/26 01:10:39;;;;;;;50.55;40.28;;;19.90;99.90;;;;;;5058534;28;20113;-80
2022/08/26 01:13:11;;;;;;;48.55;41.92;;;19.90;99.90;;;;;;5055664;28;20100;-81
2022/08/26 01:15:46;;;;;;;46.15;40.38;;;19.90;99.90;;;;;;5048495;28;20040;-82
2022/08/26 01:18:14;;;;;;;49.25;39.90;;;19.90;99.90;;;;;;5044131;28;20350;-82
2022/08/26 01:20:58;;;;;;;50.13;42.47;;;19.80;99.90;;;;;;5046176;28;20671;-82
2022/08/26 01:23:31;;;;;;;53.50;44.95;;;19.80;99.90;;;;;;5063878;28;20492;-81
2022/08/26 01:26:03;;;;;;;49.85;40.92;;;19.80;99.90;;;;;;5047176;28;20081;-81
2022/08/26 01:28:32;;;;;;;45.83;38.28;;;19.80;99.90;;;;;;5048924;28;20041;-81
2022/08/26 01:31:00;;;;;;;48.38;40.35;;;19.70;99.90;;;;;;5046677;28;20033;-81
2022/08/26 01:33:30;;;;;;;52.88;43.90;;;19.70;99.90;;;;;;5048925;28;20157;-81
2022/08/26 01:35:57;;;;;;;48.70;39.33;;;19.70;99.90;;;;;;5042908;28;20056;-82
2022/08/26 01:38:22;;;;;;;55.97;43.92;;;19.70;99.90;;;;;;5049909;28;20118;-81
2022/08/26 01:40:48;;;;;;;48.05;41.00;;;19.70;99.90;;;;;;5045817;28;20041;-82
2022/08/26 01:43:18;;;;;;;46.70;40.58;;;19.70;99.90;;;;;;5051080;28;20049;-82
2022/08/26 01:45:47;;;;;;;47.25;38.88;;;19.60;99.90;;;;;;5048827;28;20047;-82
2022/08/26 01:48:27;;;;;;;56.28;40.38;;;19.60;99.90;;;;;;5047464;28;20108;-84
2022/08/26 01:50:53;;;;;;;50.92;37.88;;;19.70;99.90;;;;;;5048686;28;20120;-83
2022/08/26 01:53:20;;;;;;;50.38;41.20;;;19.70;99.90;;;;;;5032771;28;20585;-83
2022/08/26 01:55:51;;;;;;;53.13;43.13;;;19.70;99.90;;;;;;5047419;28;20045;-83
2022/08/26 01:58:25;;;;;;;56.38;43.50;;;19.70;99.90;;;;;;5047917;28;20048;-84
2022/08/26 02:00:51;;;;;;;49.33;39.05;;;19.70;99.90;;;;;;5045501;28;20041;-83
2022/08/26 02:03:20;;;;;;;54.72;40.22;;;19.80;99.90;;;;;;5046503;28;20048;-83
2022/08/26 02:06:02;;;;;;;49.22;40.90;;;19.80;99.90;;;;;;5028845;28;20040;-84
2022/08/26 02:08:38;;;;;;;49.10;39.20;;;19.90;99.90;;;;;;5044785;28;20033;-83
2022/08/26 02:11:04;;;;;;;45.63;37.13;;;19.90;99.90;;;;;;5050112;28;20036;-82
2022/08/26 02:13:32;;;;;;;45.50;35.58;;;20.00;99.90;;;;;;5048957;28;20037;-82
2022/08/26 02:16:00;;;;;;;46.65;38.05;;;20.00;99.90;;;;;;5041281;28;20048;-81
2022/08/26 02:18:28;;;;;;;46.42;35.95;;;20.00;99.90;;;;;;5052871;28;20052;-82
2022/08/26 02:20:55;;;;;;;40.33;32.83;;;20.00;99.90;;;;;;5056592;28;20036;-81
2022/08/26 02:23:20;;;;;;;41.70;34.67;;;20.00;99.90;;;;;;5031232;28;20707;-81
2022/08/26 02:25:54;;;;;;;42.13;32.33;;;20.00;99.90;;;;;;5053867;28;20051;-82
2022/08/26 02:28:20;;;;;;;42.70;33.63;;;20.10;99.90;;;;;;5053030;28;20041;-82
2022/08/26 02:30:46;;;;;;;39.60;29.92;;;20.10;99.90;;;;;;5052210;28;20127;-82
2022/08/26 02:33:12;;;;;;;42.50;31.73;;;20.10;99.90;;;;;;5052942;28;20076;-81
2022/08/26 02:35:38;;;;;;;36.50;28.88;;;20.20;99.90;;;;;;5048757;28;20103;-81
2022/08/26 02:38:06;;;;;;;44.45;33.08;;;20.20;99.90;;;;;;5051434;28;20038;-81
2022/08/26 02:40:34;;;;;;;39.47;29.80;;;20.20;99.90;;;;;;5052472;28;20451;-80
2022/08/26 02:43:00;;;;;;;45.38;31.17;;;20.20;99.90;;;;;;5050620;28;20047;-81
2022/08/26 02:45:27;;;;;;;47.40;34.38;;;20.20;99.90;;;;;;5049639;28;20116;-83
2022/08/26 02:47:55;;;;;;;37.42;29.77;;;20.20;99.90;;;;;;5058174;28;20068;-83
2022/08/26 02:50:21;;;;;;;39.60;31.63;;;20.20;99.90;;;;;;5044827;28;20091;-82
2022/08/26 02:52:47;;;;;;;45.38;33.28;;;20.10;99.90;;;;;;5046103;28;20439;-83
2022/08/26 02:55:13;;;;;;;39.38;32.15;;;20.20;99.90;;;;;;5030554;28;20037;-83
2022/08/26 02:57:38;;;;;;;40.00;30.52;;;20.10;99.90;;;;;;5045009;28;20124;-83
2022/08/26 03:00:06;;;;;;;40.72;29.23;;;20.10;99.90;;;;;;5043975;28;20142;-82
2022/08/26 03:02:32;;;;;;;43.33;33.20;;;20.10;99.90;;;;;;5045006;28;20487;-82
2022/08/26 03:04:57;;;;;;;39.42;31.55;;;20.20;99.90;;;;;;5043179;28;20160;-82
2022/08/26 03:07:23;;;;;;;43.45;34.42;;;20.20;99.90;;;;;;5046146;28;20043;-83
2022/08/26 03:09:49;;;;;;;44.63;31.08;;;20.20;99.90;;;;;;5040405;28;20509;-83
2022/08/26 03:12:14;;;;;;;43.13;30.52;;;20.10;99.90;;;;;;5046784;28;20053;-83
2022/08/26 03:14:40;;;;;;;44.17;33.45;;;20.20;99.90;;;;;;5054398;28;20045;-83
2022/08/26 03:17:05;;;;;;;44.00;34.65;;;20.20;99.90;;;;;;5063269;28;20041;-82
2022/08/26 03:19:31;;;;;;;41.95;32.72;;;20.20;99.90;;;;;;5058948;28;20180;-82
2022/08/26 03:21:57;;;;;;;42.33;34.25;;;20.20;99.90;;;;;;5060892;28;20056;-82
2022/08/26 03:24:24;;;;;;;40.42;33.10;;;20.20;99.90;;;;;;5059117;28;20048;-81
2022/08/26 03:26:49;;;;;;;41.20;29.17;;;20.20;99.90;;;;;;5060244;28;20047;-80
2022/08/26 03:32:00;;;;;;;39.10;31.52;;;20.30;99.90;;;;;;5063378;28;20041;-81
2022/08/26 03:34:26;;;;;;;44.63;36.35;;;20.20;99.90;;;;;;5062838;28;20048;-81
2022/08/26 03:36:52;;;;;;;42.28;32.70;;;20.30;99.90;;;;;;5065019;28;20041;-80
2022/08/26 03:39:17;;;;;;;41.72;32.60;;;20.30;99.90;;;;;;5052134;28;20090;-80
2022/08/26 03:41:46;;;;;;;44.53;31.92;;;20.30;99.90;;;;;;5059220;28;20044;-80
2022/08/26 03:44:12;;;;;;;42.05;31.58;;;20.30;99.90;;;;;;5060902;28;20100;-80
2022/08/26 03:46:39;;;;;;;43.08;31.23;;;20.30;99.90;;;;;;5058709;28;20041;-80
2022/08/26 03:49:05;;;;;;;42.13;30.52;;;20.30;99.90;;;;;;5051620;28;20029;-80
2022/08/26 03:51:33;;;;;;;39.05;29.15;;;20.30;99.90;;;;;;5059600;28;20048;-80
2022/08/26 03:53:59;;;;;;;42.03;31.20;;;20.40;99.90;;;;;;5060529;28;20052;-80
2022/08/26 03:56:26;;;;;;;40.63;31.13;;;20.40;99.90;;;;;;5057264;28;20044;-81
2022/08/26 03:58:52;;;;;;;42.72;30.05;;;20.40;99.90;;;;;;5058405;28;20033;-80
2022/08/26 04:01:18;;;;;;;39.50;30.83;;;20.40;99.90;;;;;;5054271;28;20060;-81
2022/08/26 04:03:56;;;;;;;38.80;29.73;;;20.40;99.90;;;;;;5034755;28;20041;-81
2022/08/26 04:06:26;;;;;;;39.88;28.38;;;20.40;99.90;;;;;;5048031;28;20045;-81
2022/08/26 04:08:54;;;;;;;41.58;29.45;;;20.40;99.90;;;;;;5031614;28;20052;-81
2022/08/26 04:11:22;;;;;;;39.88;31.50;;;20.40;99.90;;;;;;5047494;28;20147;-81
2022/08/26 04:13:48;;;;;;;36.58;30.00;;;20.40;99.90;;;;;;5044525;28;20052;-81
2022/08/26 04:16:15;;;;;;;36.33;30.23;;;20.40;99.90;;;;;;5054135;28;20036;-81
2022/08/26 04:18:41;;;;;;;38.92;31.38;;;20.30;99.90;;;;;;5052518;28;20080;-81
2022/08/26 04:21:08;;;;;;;37.53;28.27;;;20.40;99.90;;;;;;5035646;28;20044;-81
2022/08/26 04:23:34;;;;;;;39.40;30.10;;;20.40;99.90;;;;;;5051808;28;20041;-81
2022/08/26 04:26:00;;;;;;;37.30;26.45;;;20.30;99.90;;;;;;5051734;28;20120;-81
2022/08/26 04:28:27;;;;;;;38.78;26.35;;;20.30;99.90;;;;;;5052573;28;20463;-81
2022/08/26 04:30:53;;;;;;;35.67;25.95;;;20.30;99.90;;;;;;5048496;28;20455;-82
2022/08/26 04:33:19;;;;;;;38.15;25.58;;;20.30;99.90;;;;;;5050432;28;20040;-81
2022/08/26 04:35:44;;;;;;;34.80;25.77;;;20.30;99.90;;;;;;5049095;28;20052;-81
2022/08/26 04:38:10;;;;;;;33.75;24.88;;;20.30;99.90;;;;;;5048032;28;20079;-81
2022/08/26 04:40:36;;;;;;;30.38;22.02;;;20.30;99.90;;;;;;5048648;28;20098;-81
2022/08/26 04:43:02;;;;;;;34.70;22.30;;;20.30;99.90;;;;;;5051120;28;20421;-81
2022/08/26 04:45:27;;;;;;;31.50;22.83;;;20.30;99.90;;;;;;5052068;28;20033;-81
2022/08/26 04:47:55;;;;;;;35.63;24.50;;;20.40;99.90;;;;;;5053081;28;20068;-80
2022/08/26 04:50:22;;;;;;;34.10;24.48;;;20.40;99.90;;;;;;5052858;28;20037;-80
2022/08/26 04:52:48;;;;;;;35.97;23.38;;;20.40;99.90;;;;;;5049756;28;20120;-79
2022/08/26 04:55:14;;;;;;;37.20;25.20;;;20.40;99.90;;;;;;5034531;28;20044;-80
2022/08/26 04:57:40;;;;;;;33.35;21.17;;;20.40;99.90;;;;;;5051923;28;20045;-80
2022/08/26 05:00:09;;;;;;;40.05;23.88;;;20.40;99.90;;;;;;5046776;28;20044;-79
2022/08/26 05:02:35;;;;;;;35.05;24.25;;;20.50;99.90;;;;;;5045605;28;20041;-79
2022/08/26 05:05:01;;;;;;;33.67;20.38;;;20.50;99.90;;;;;;5048621;28;20049;-79
2022/08/26 05:07:27;;;;;;;30.13;19.55;;;20.50;99.90;;;;;;5049051;28;20048;-79
2022/08/26 05:09:53;;;;;;;29.85;19.88;;;20.50;99.90;;;;;;5034662;28;20089;-79
2022/08/26 05:12:18;;;;;;;26.60;19.30;;;20.60;99.90;;;;;;5050929;28;20033;-79
2022/08/26 05:14:45;;;;;;;29.48;20.17;;;20.60;99.90;;;;;;5049613;28;20041;-80
2022/08/26 05:17:10;;;;;;;27.95;17.65;;;20.60;99.90;;;;;;5050430;28;20491;-80
2022/08/26 05:19:36;;;;;;;29.88;19.83;;;20.50;99.90;;;;;;5033699;28;20041;-79
2022/08/26 05:22:02;;;;;;;29.23;19.42;;;20.60;99.90;;;;;;5044487;28;20412;-79
2022/08/26 05:24:29;;;;;;;29.02;19.23;;;20.60;99.90;;;;;;5050021;28;20055;-79
2022/08/26 05:26:54;;;;;;;30.45;20.27;;;20.60;99.90;;;;;;5047345;28;20061;-79
2022/08/26 05:29:20;;;;;;;31.30;19.92;;;20.60;99.90;;;;;;5046418;28;20033;-79
2022/08/26 05:31:49;;;;;;;28.00;21.02;;;20.60;99.90;;;;;;5048620;28;20587;-79
2022/08/26 05:34:14;;;;;;;25.42;18.80;;;20.60;99.90;;;;;;5048951;28;20041;-79
2022/08/26 05:36:40;;;;;;;27.48;18.73;;;20.60;99.90;;;;;;5045549;28;20414;-79
2022/08/26 05:39:06;;;;;;;26.23;18.83;;;20.70;99.90;;;;;;5040516;28;20413;-80
2022/08/26 05:41:34;;;;;;;28.52;20.02;;;20.70;99.90;;;;;;5045323;28;20037;-79
2022/08/26 05:44:01;;;;;;;31.85;20.05;;;20.70;99.90;;;;;;5051212;28;20047;-79
2022/08/26 05:46:27;;;;;;;29.27;20.90;;;20.80;99.90;;;;;;5048586;28;20430;-80
2022/08/26 05:48:54;;;;;;;26.67;17.90;;;20.80;99.90;;;;;;5049466;28;20119;-80
2022/08/26 05:51:20;;;;;;;26.88;18.95;;;20.80;99.90;;;;;;5048925;28;20045;-80
2022/08/26 05:53:46;;;;;;;24.63;18.73;;;20.80;99.90;;;;;;5047614;28;20037;-80
2022/08/26 05:56:12;;;;;;;25.92;19.08;;;20.80;99.90;;;;;;5049726;28;20574;-80
2022/08/26 05:58:40;;;;;;;28.92;20.10;;;20.80;99.90;;;;;;5048900;28;20344;-80
2022/08/26 06:01:11;;;;;;;31.52;20.95;;;20.90;99.90;;;;;;5032355;28;20483;-80
2022/08/26 06:03:38;;;;;;;29.67;20.58;;;20.90;99.90;;;;;;5044985;28;20100;-80
2022/08/26 06:06:07;;;;;;;25.70;20.98;;;20.90;99.90;;;;;;5045367;28;20037;-80
2022/08/26 06:08:34;;;;;;;27.05;20.75;;;20.90;99.90;;;;;;5043713;28;20040;-79
2022/08/26 06:11:02;;;;;;;28.42;21.48;;;21.00;99.90;;;;;;5041241;28;20107;-79
2022/08/26 06:13:28;;;;;;;30.27;21.30;;;21.00;99.90;;;;;;5050491;28;20043;-81
2022/08/26 06:15:55;;;;;;;30.10;21.40;;;20.90;99.90;;;;;;5052250;28;20036;-81
2022/08/26 06:18:26;;;;;;;27.55;21.15;;;20.90;99.90;;;;;;5051329;28;20127;-81
2022/08/26 06:20:53;;;;;;;33.17;21.77;;;20.90;99.90;;;;;;5040684;28;20076;-81
2022/08/26 06:26:04;;;;;;;29.73;21.75;;;20.90;99.90;;;;;;5052994;28;20049;-81
2022/08/26 06:28:30;;;;;;;37.85;22.85;;;21.00;99.90;;;;;;5053652;28;20040;-81
2022/08/26 06:30:56;;;;;;;32.60;20.55;;;21.00;99.90;;;;;;5047993;28;20037;-81
2022/08/26 06:33:23;;;;;;;29.95;20.77;;;21.00;99.90;;;;;;5049496;28;20056;-80
2022/08/26 06:35:49;;;;;;;34.53;23.20;;;21.00;99.90;;;;;;5050522;28;20049;-80
2022/08/26 06:38:16;;;;;;;32.95;24.25;;;21.10;99.90;;;;;;5053790;28;20060;-81
2022/08/26 06:40:48;;;;;;;31.42;21.70;;;21.10;99.90;;;;;;5052539;28;20045;-81
2022/08/26 06:43:16;;;;;;;30.38;21.35;;;21.10;99.90;;;;;;5051157;28;20099;-81
2022/08/26 06:45:44;;;;;;;29.50;20.63;;;21.20;99.90;;;;;;5053143;28;20107;-81
2022/08/26 06:48:11;;;;;;;22.50;19.48;;;21.20;99.90;;;;;;5055422;28;20037;-81
2022/08/26 06:50:36;;;;;;;27.15;18.05;;;21.20;99.90;;;;;;5053099;28;20044;-80
2022/08/26 06:53:02;;;;;;;30.02;19.88;;;21.30;99.90;;;;;;5054269;28;20063;-82
2022/08/26 06:55:28;;;;;;;32.90;18.83;;;21.40;99.90;;;;;;5054064;28;20150;-80
2022/08/26 06:57:57;;;;;;;27.38;17.98;;;21.40;99.90;;;;;;5053945;28;20041;-81
2022/08/26 07:00:22;;;;;;;25.50;18.38;;;21.50;99.90;;;;;;5051623;28;20517;-80
2022/08/26 07:02:48;;;;;;;26.75;17.73;;;21.70;99.90;;;;;;5034013;28;20033;-81
2022/08/26 07:05:14;;;;;;;25.73;18.10;;;21.80;99.90;;;;;;5035140;28;20033;-81
2022/08/26 07:07:39;;;;;;;21.60;16.65;;;22.00;99.90;;;;;;5052729;28;20102;-81
2022/08/26 07:10:07;;;;;;;15.07;11.32;;;22.00;99.90;;;;;;5048940;28;20112;-80
2022/08/26 07:12:36;;;;;;;20.23;12.15;;;22.10;99.90;;;;;;5047817;28;20072;-80
2022/08/26 07:15:02;;;;;;;23.77;15.10;;;22.10;99.90;;;;;;5058903;28;20068;-79
2022/08/26 07:17:28;;;;;;;22.13;15.25;;;22.00;99.90;;;;;;5047683;28;20076;-78
2022/08/26 07:19:54;;;;;;;40.65;29.75;;;21.80;99.90;;;;;;5045635;28;20037;-79
2022/08/26 07:22:19;;;;;;;45.70;32.85;;;21.80;99.90;;;;;;5047486;28;20497;-79
2022/08/26 07:24:45;;;;;;;26.17;15.82;;;21.70;99.90;;;;;;5038503;28;20033;-79
2022/08/26 07:27:14;;;;;;;40.80;31.88;;;21.60;99.90;;;;;;5038159;28;20091;-79
2022/08/26 07:29:42;;;;;;;25.08;22.08;;;21.70;99.90;;;;;;5028959;28;20036;-80
2022/08/26 07:32:08;;;;;;;19.15;12.07;;;21.80;99.90;;;;;;5048970;28;20492;-80
2022/08/26 07:34:36;;;;;;;13.52;10.55;;;21.80;99.90;;;;;;5052237;28;20041;-79
2022/08/26 07:37:03;;;;;;;16.98;10.30;;;21.80;99.90;;;;;;5046980;28;20057;-79
2022/08/26 07:39:30;;;;;;;20.42;11.38;;;21.90;99.90;;;;;;5030647;28;20083;-79
2022/08/26 07:41:56;;;;;;;20.98;11.15;;;21.90;99.90;;;;;;5044016;28;20138;-79
2022/08/26 07:44:22;;;;;;;16.77;11.00;;;22.00;99.90;;;;;;5038458;28;20180;-80
2022/08/26 07:46:49;;;;;;;17.48;9.80;;;22.10;99.90;;;;;;5046731;28;20093;-80
2022/08/26 07:49:16;;;;;;;13.95;11.50;;;22.20;99.90;;;;;;5038241;28;20037;-80
2022/08/26 07:51:42;;;;;;;12.25;8.88;;;22.30;99.90;;;;;;5039590;28;20124;-80
2022/08/26 07:54:07;;;;;;;16.98;10.38;;;22.40;99.90;;;;;;5054421;28;20464;-80
2022/08/26 07:56:34;;;;;;;14.35;9.07;;;22.50;99.90;;;;;;5058606;28;20041;-80
2022/08/26 07:59:00;;;;;;;18.02;9.57;;;22.50;99.90;;;;;;5059559;28;20076;-82
2022/08/26 08:01:26;;;;;;;10.88;7.60;;;22.50;99.90;;;;;;5057705;28;20055;-81
2022/08/26 08:03:52;;;;;;;11.57;7.28;;;22.50;99.90;;;;;;5057549;28;20053;-82
2022/08/26 08:06:19;;;;;;;14.10;8.95;;;22.50;99.90;;;;;;5056423;28;20033;-82
2022/08/26 08:08:46;;;;;;;17.83;9.25;;;22.50;99.90;;;;;;5040729;28;20033;-81
2022/08/26 08:11:12;;;;;;;16.67;9.65;;;22.50;99.90;;;;;;5056619;28;20037;-81
2022/08/26 08:13:38;;;;;;;12.27;8.80;;;22.60;99.90;;;;;;5057355;28;20514;-81
2022/08/26 08:16:04;;;;;;;14.48;8.50;;;22.70;99.90;;;;;;5040645;28;20041;-80
2022/08/26 08:18:30;;;;;;;16.15;7.65;;;22.90;99.90;;;;;;5057119;28;20116;-80
2022/08/26 08:20:56;;;;;;;16.88;8.93;;;23.10;99.90;;;;;;5056503;28;20178;-80
2022/08/26 08:23:22;;;;;;;13.32;7.13;;;23.40;99.90;;;;;;5040286;28;20094;-81
2022/08/26 08:25:48;;;;;;;11.75;6.60;;;23.60;99.90;;;;;;5055602;28;20446;-81
2022/08/26 08:28:14;;;;;;;15.77;8.18;;;23.90;99.90;;;;;;5056343;28;20032;-81
2022/08/26 08:30:40;;;;;;;12.68;7.95;;;24.20;99.90;;;;;;5055253;28;20037;-81
2022/08/26 08:33:07;;;;;;;14.23;6.70;;;24.30;99.90;;;;;;5057032;28;20098;-81
2022/08/26 08:35:33;;;;;;;9.73;6.18;;;24.30;99.90;;;;;;5039994;28;20083;-82
2022/08/26 08:37:59;;;;;;;11.85;7.30;;;24.30;99.90;;;;;;5056668;28;20097;-83
2022/08/26 08:40:26;;;;;;;8.98;6.55;;;24.30;99.90;;;;;;5055321;28;20116;-82
2022/08/26 08:43:09;;;;;;;14.38;5.78;;;24.00;99.90;;;;;;5039725;28;20181;-82
2022/08/26 08:45:39;;;;;;;12.10;4.70;;;23.70;99.90;;;;;;5056280;28;20048;-82
2022/08/26 08:48:18;;;;;;;9.43;4.68;;;23.70;99.90;;;;;;5057017;28;20048;-82
2022/08/26 08:51:03;;;;;;;10.82;6.45;;;23.70;99.90;;;;;;5055068;28;20207;-82
2022/08/26 08:53:40;;;;;;;11.20;6.10;;;23.70;99.90;;;;;;5056942;28;20427;-82
2022/08/26 08:56:24;;;;;;;7.20;5.28;;;23.70;99.90;;;;;;5055453;28;20041;-83
2022/08/26 08:58:59;;;;;;;8.52;5.57;;;23.80;99.90;;;;;;5039978;28;20128;-82
2022/08/26 09:01:43;;;;;;;10.43;5.68;;;23.80;99.90;;;;;;5056657;28;20055;-82
2022/08/26 09:04:34;;;;;;;9.68;6.15;;;23.60;99.90;;;;;;5055161;28;20040;-82
2022/08/26 09:07:03;;;;;;;9.48;4.82;;;23.40;99.90;;;;;;5056321;28;20044;-82
2022/08/26 09:10:23;;;;;;;9.35;5.35;;;23.20;99.90;;;;;;5054633;28;20041;-82
2022/08/26 09:12:49;;;;;;;10.43;4.80;;;23.20;99.90;;;;;;5032163;28;20057;-82
2022/08/26 09:15:17;;;;;;;11.02;4.43;;;23.10;99.90;;;;;;5055564;28;20408;-82
2022/08/26 09:17:54;;;;;;;8.90;3.47;;;23.10;99.90;;;;;;5055734;28;20178;-81
2022/08/26 09:20:47;;;;;;;7.80;3.92;;;23.10;99.90;;;;;;5038535;28;20539;-82
2022/08/26 09:23:13;;;;;;;12.80;4.55;;;23.20;99.90;;;;;;5037959;28;20098;-81
2022/08/26 09:25:48;;;;;;;6.07;3.45;;;23.20;99.90;;;;;;5050956;28;20041;-82
2022/08/26 09:28:18;;;;;;;7.82;3.88;;;23.10;99.90;;;;;;5049276;28;20029;-81
2022/08/26 09:30:46;;;;;;;8.27;4.00;;;23.10;99.90;;;;;;5050257;28;20041;-81
2022/08/26 09:33:16;;;;;;;8.75;3.53;;;22.90;99.90;;;;;;5045623;28;20045;-82
2022/08/26 09:35:46;;;;;;;6.43;3.28;;;22.90;99.90;;;;;;5054575;28;20086;-81
2022/08/26 09:38:25;;;;;;;6.10;2.80;;;22.90;99.90;;;;;;5058809;28;20048;-79
2022/08/26 09:41:00;;;;;;;7.57;3.30;;;22.90;99.90;;;;;;5048368;28;20084;-79
2022/08/26 09:43:27;;;;;;;;;;;22.90;99.90;;;;;;5050563;28;20037;-79
2022/08/26 09:46:09;;;;;;;5.78;1.77;;;22.80;99.90;;;;;;5039645;28;19917;-80
2022/08/26 09:48:38;;;;;;;5.78;1.50;;;22.90;99.90;;;;;;5040375;28;20069;-80
2022/08/26 09:51:28;;;;;;;6.88;2.58;;;22.80;99.90;;;;;;5036205;28;20411;-79
2022/08/26 09:54:02;;;;;;;5.32;1.85;;;22.90;99.90;;;;;;5048313;28;20053;-79
2022/08/26 09:56:33;;;;;;;8.18;2.40;;;22.80;99.90;;;;;;5041392;28;20069;-79
2022/08/26 09:59:01;;;;;;;6.82;2.28;;;22.70;99.90;;;;;;5038572;28;20124;-80
2022/08/26 10:01:31;;;;;;;5.80;0.93;;;22.70;99.90;;;;;;5048669;28;20039;-82
2022/08/26 10:04:09;;;;;;;4.82;1.45;;;22.70;99.90;;;;;;5049350;28;20041;-83
2022/08/26 10:06:42;;;;;;;6.03;1.10;;;22.70;99.90;;;;;;5044770;28;20102;-81
2022/08/26 10:09:12;;;;;;;8.48;1.95;;;22.70;99.90;;;;;;5044780;28;20063;-80
2022/08/26 10:11:59;;;;;;;6.70;1.08;;;22.70;99.90;;;;;;5055346;28;20059;-80
2022/08/26 10:14:32;;;;;;;4.65;1.13;;;22.70;99.90;;;;;;5053419;28;20041;-80
2022/08/26 10:17:37;;;;;;;6.13;2.10;;;22.70;99.90;;;;;;5042918;28;20041;-81
2022/08/26 10:20:21;;;;;;;6.80;2.10;;;22.70;99.90;;;;;;5050684;28;20462;-80
2022/08/26 10:22:59;;;;;;;6.05;1.15;;;22.60;99.90;;;;;;5059633;28;20052;-81
2022/08/26 10:25:31;;;;;;;8.65;2.08;;;22.60;99.90;;;;;;5060324;28;20120;-81
2022/08/26 10:28:08;;;;;;;9.88;1.35;;;22.60;99.90;;;;;;5059212;28;20116;-80
2022/08/26 10:30:44;;;;;;;3.53;1.20;;;22.60;99.90;;;;;;5058205;28;20159;-81
2022/08/26 10:33:16;;;;;;;4.45;1.42;;;22.70;99.90;;;;;;5033517;28;20041;-80
2022/08/26 10:35:50;;;;;;;3.58;1.65;;;22.60;99.90;;;;;;5043045;28;20041;-81
2022/08/26 10:38:18;;;;;;;;;;;22.50;99.90;;;;;;5057497;28;20047;-80
2022/08/26 10:41:06;;;;;;;5.97;1.30;;;22.40;99.90;;;;;;5040326;28;19921;-81
2022/08/26 10:43:39;;;;;;;4.57;1.42;;;22.50;99.90;;;;;;5039732;28;20121;-80
2022/08/26 10:46:16;;;;;;;3.97;1.60;;;22.50;99.90;;;;;;5045345;28;20045;-81
2022/08/26 10:48:50;;;;;;;6.50;1.10;;;22.70;99.90;;;;;;5046277;28;20052;-81
2022/08/26 10:51:22;;;;;;;5.97;2.10;;;22.60;99.90;;;;;;5046352;28;20052;-80
2022/08/26 10:53:47;;;;;;;6.05;1.30;;;22.60;99.90;;;;;;5045224;28;20307;-80
2022/08/26 10:56:28;;;;;;;3.15;0.93;;;22.60;99.90;;;;;;5039901;28;20041;-80
2022/08/26 10:59:03;;;;;;;3.58;1.35;;;22.50;99.90;;;;;;5040116;28;20073;-81
2022/08/26 11:01:40;;;;;;;7.20;1.45;;;22.50;99.90;;;;;;5063661;28;20064;-81
2022/08/26 11:04:22;;;;;;;6.13;1.17;;;22.50;99.90;;;;;;5044140;28;20045;-81
2022/08/26 11:06:48;;;;;;;3.72;1.50;;;22.50;99.90;;;;;;5027885;28;20048;-80
2022/08/26 11:09:44;;;;;;;6.47;1.45;;;22.40;99.90;;;;;;5046217;28;20048;-81
2022/08/26 11:12:46;;;;;;;6.65;2.03;;;22.40;99.90;;;;;;5053234;28;20037;-80
2022/08/26 11:15:31;;;;;;;8.13;2.13;;;22.30;99.90;;;;;;5037423;28;20167;-80
2022/08/26 11:18:06;;;;;;;3.63;1.00;;;22.40;99.90;;;;;;5038109;28;20029;-79
2022/08/26 11:20:44;;;;;;;3.65;1.40;;;22.60;99.90;;;;;;5039073;28;20072;-80
2022/08/26 11:23:21;;;;;;;6.82;2.13;;;22.70;99.90;;;;;;5038998;28;20504;-80
2022/08/26 11:25:56;;;;;;;4.72;1.33;;;22.90;99.90;;;;;;5025855;28;20385;-80
2022/08/26 11:28:48;;;;;;;;;;;23.00;99.90;;;;;;5053963;28;20048;-80
2022/08/26 11:31:23;;;;;;;3.20;0.85;;;23.00;99.90;;;;;;5054636;28;19943;-80
2022/08/26 11:33:59;;;;;;;5.28;0.93;;;23.10;99.90;;;;;;5047331;28;20056;-80
2022/08/26 11:36:49;;;;;;;8.95;2.45;;;23.30;99.90;;;;;;5040887;28;20495;-80
2022/08/26 11:39:33;;;;;;;3.20;0.80;;;23.60;99.90;;;;;;5054186;28;20045;-81
2022/08/26 11:42:20;;;;;;;4.67;1.07;;;23.90;99.90;;;;;;5048648;28;20080;-82
2022/08/26 11:44:46;;;;;;;5.32;2.08;;;23.90;99.90;;;;;;5053805;28;20132;-82
2022/08/26 11:47:16;;;;;;;5.03;1.25;;;23.80;99.90;;;;;;5038132;28;20084;-82
2022/08/26 11:49:42;;;;;;;5.22;1.58;;;23.70;99.90;;;;;;5050359;28;20052;-81
2022/08/26 11:52:15;;;;;;;4.18;1.50;;;23.60;99.90;;;;;;5050308;28;20041;-81
2022/08/26 11:54:59;;;;;;;4.93;1.23;;;23.40;99.90;;;;;;5052416;28;20048;-82
2022/08/26 11:57:25;;;;;;;4.80;1.45;;;23.30;99.90;;;;;;5035093;28;20044;-82
2022/08/26 11:59:51;;;;;;;7.30;2.15;;;23.40;99.90;;;;;;5050554;28;20046;-82
2022/08/26 12:02:18;;;;;;;5.45;1.67;;;23.30;99.90;;;;;;5034399;28;20095;-82
2022/08/26 12:04:47;;;;;;;6.93;1.65;;;23.30;99.90;;;;;;5035017;28;20048;-82
2022/08/26 12:07:14;;;;;;;5.60;1.73;;;23.20;99.90;;;;;;5048479;28;20091;-82
2022/08/26 12:09:55;;;;;;;5.60;1.55;;;23.10;99.90;;;;;;5055590;28;20064;-81
2022/08/26 12:12:24;;;;;;;5.47;1.92;;;23.10;99.90;;;;;;5046292;28;20140;-82
2022/08/26 12:15:09;;;;;;;12.13;2.50;;;23.00;99.90;;;;;;5037887;28;20099;-81
2022/08/26 12:17:35;;;;;;;7.07;2.38;;;22.80;99.90;;;;;;5035904;28;20037;-81
2022/08/26 12:20:01;;;;;;;8.90;2.65;;;22.80;99.90;;;;;;5034571;28;20040;-82
2022/08/26 12:22:37;;;;;;;6.40;2.03;;;22.80;99.90;;;;;;5024876;28;20059;-82
2022/08/26 12:25:07;;;;;;;8.55;1.95;;;22.80;99.90;;;;;;5048124;28;20499;-81
2022/08/26 12:27:44;;;;;;;4.35;1.02;;;22.80;99.90;;;;;;5053032;28;20102;-82
2022/08/26 12:30:14;;;;;;;6.10;1.52;;;23.00;99.90;;;;;;5052721;28;20041;-82
2022/08/26 12:32:43;;;;;;;6.65;1.42;;;23.20;99.90;;;;;;5044414;28;20056;-81
2022/08/26 12:35:11;;;;;;;5.85;1.48;;;23.40;99.90;;;;;;5048277;28;20029;-82
2022/08/26 12:37:40;;;;;;;5.70;1.02;;;23.50;99.90;;;;;;5030907;28;20500;-81
2022/08/26 12:40:41;;;;;;;7.72;1.45;;;23.50;99.90;;;;;;5044616;28;20047;-81
2022/08/26 12:43:09;;;;;;;3.10;0.75;;;23.40;99.90;;;;;;5032333;28;20057;-80
2022/08/26 12:45:55;;;;;;;4.82;1.13;;;23.20;99.90;;;;;;5046176;28;20040;-80
2022/08/26 12:48:27;;;;;;;5.88;1.00;;;23.00;99.90;;;;;;5042253;28;20065;-81
2022/08/26 12:50:52;;;;;;;5.68;1.85;;;22.90;99.90;;;;;;5052905;28;20049;-81
2022/08/26 12:53:32;;;;;;;4.45;1.27;;;23.00;99.90;;;;;;5047307;28;20052;-82
2022/08/26 12:56:20;;;;;;;5.55;1.50;;;23.00;99.90;;;;;;5038620;28;20064;-83